Time;durP1;ratioP1;P1;durP2;ratioP2;P2;SDS_P1;SDS_P2;PMS_P1;PMS_P2;Temp;Humidity;BMP_temperature;BMP_pressure;BME280_temperature;BME280_humidity;BME280_pressure;Samples;Min_cycle;Max_cycle;Signal;HPM_P1;HPM_P2
2022/04/18 00:00:16;;;;;;;3.03;2.80;;;10.40;30.00;;;;;;20718;6769;117381;-72
2022/04/18 00:02:52;;;;;;;2.87;2.63;;;10.00;30.10;;;;;;20762;6769;117403;-71
2022/04/18 00:05:28;;;;;;;3.13;2.93;;;10.00;29.90;;;;;;20529;6784;278126;-71
2022/04/18 00:08:04;;;;;;;3.10;2.90;;;10.20;30.90;;;;;;20526;6784;297701;-72
2022/04/18 00:10:39;;;;;;;3.70;3.30;;;10.60;30.70;;;;;;20617;6805;117784;-71
2022/04/18 00:13:15;;;;;;;3.17;2.97;;;10.50;30.50;;;;;;20580;6762;310880;-71
2022/04/18 00:15:51;;;;;;;3.40;3.20;;;10.50;30.50;;;;;;20529;6783;306793;-72
2022/04/18 00:18:27;;;;;;;3.10;2.80;;;10.70;30.20;;;;;;20747;6783;117040;-72
2022/04/18 00:21:05;;;;;;;3.30;3.10;;;10.50;30.00;;;;;;20636;6769;117516;-72
2022/04/18 00:23:38;;;;;;;3.23;3.03;;;10.10;30.10;;;;;;20801;6766;117638;-71
2022/04/18 00:26:13;;;;;;;3.00;2.83;;;9.80;31.50;;;;;;20759;6779;117235;-71
2022/04/18 00:28:49;;;;;;;3.20;3.00;;;9.60;31.70;;;;;;20547;6771;307136;-72
2022/04/18 00:31:25;;;;;;;3.30;3.10;;;9.80;32.50;;;;;;20457;6764;338665;-71
2022/04/18 00:34:00;;;;;;;3.30;3.00;;;10.20;31.30;;;;;;20851;6749;116930;-72
2022/04/18 00:36:36;;;;;;;3.20;3.00;;;10.00;30.80;;;;;;20796;6764;116985;-72
2022/04/18 00:39:11;;;;;;;3.03;2.83;;;9.70;31.90;;;;;;20835;6749;123718;-72
2022/04/18 00:41:47;;;;;;;3.40;3.20;;;9.40;32.10;;;;;;20385;6781;281272;-71
2022/04/18 00:44:22;;;;;;;3.30;3.10;;;9.60;32.70;;;;;;20580;6766;279258;-71
2022/04/18 00:46:58;;;;;;;2.77;2.67;;;9.90;32.40;;;;;;20734;6779;117311;-71
2022/04/18 00:49:34;;;;;;;3.50;3.30;;;9.80;32.00;;;;;;20517;6786;336964;-71
2022/04/18 00:52:09;;;;;;;3.00;2.90;;;9.90;32.30;;;;;;20782;6781;117375;-72
2022/04/18 00:54:44;;;;;;;3.80;3.50;;;9.70;32.00;;;;;;20715;6786;117622;-72
2022/04/18 00:57:20;;;;;;;3.40;3.20;;;9.40;32.20;;;;;;20473;6798;338195;-71
2022/04/18 00:59:56;;;;;;;3.60;3.30;;;9.60;32.40;;;;;;20500;6784;307401;-72
2022/04/18 01:02:32;;;;;;;3.40;3.20;;;10.00;31.10;;;;;;20534;6784;306966;-72
2022/04/18 01:05:07;;;;;;;3.63;3.33;;;10.30;30.70;;;;;;20506;6785;283460;-72
2022/04/18 01:07:43;;;;;;;3.30;3.10;;;10.60;30.10;;;;;;20543;6779;288523;-71
2022/04/18 01:10:19;;;;;;;3.62;3.42;;;10.60;30.10;;;;;;20529;6766;334906;-71
2022/04/18 01:12:54;;;;;;;3.60;3.30;;;10.70;30.00;;;;;;20829;6749;117065;-72
2022/04/18 01:15:30;;;;;;;3.58;3.37;;;10.40;30.00;;;;;;20587;6766;278252;-72
2022/04/18 01:18:06;;;;;;;3.60;3.40;;;10.40;30.50;;;;;;20800;6764;117887;-72
2022/04/18 01:20:41;;;;;;;3.40;3.20;;;10.20;30.60;;;;;;20511;6766;279400;-71
2022/04/18 01:23:17;;;;;;;3.50;3.20;;;10.20;31.40;;;;;;20770;6783;116903;-72
2022/04/18 01:29:07;;;;;;;3.70;3.50;;;10.20;32.00;;;;;;20142;6824;119850;-71
2022/04/18 01:31:13;;;;;;;4.40;4.10;;;10.00;31.60;;;;;;20271;6824;308776;-72
2022/04/18 01:33:50;;;;;;;4.40;4.10;;;10.40;30.90;;;;;;20582;6779;307065;-72
2022/04/18 01:36:25;;;;;;;4.45;4.20;;;10.40;30.90;;;;;;20582;6766;336071;-72
2022/04/18 01:39:01;;;;;;;4.03;3.73;;;10.50;30.60;;;;;;20741;6779;118116;-72
2022/04/18 01:41:38;;;;;;;3.60;3.40;;;10.30;30.60;;;;;;20387;6786;280413;-72
2022/04/18 01:44:13;;;;;;;4.17;3.90;;;10.20;30.70;;;;;;20544;6779;277881;-72
2022/04/18 01:46:49;;;;;;;3.92;3.70;;;10.40;30.70;;;;;;20529;6772;340859;-72
2022/04/18 01:49:24;;;;;;;4.67;3.57;;;10.50;30.40;;;;;;20734;6794;117903;-72
2022/04/18 01:52:00;;;;;;;4.17;3.80;;;10.20;30.30;;;;;;20615;6779;117445;-72
2022/04/18 01:54:37;;;;;;;4.10;3.83;;;9.70;31.70;;;;;;20615;6754;329618;-72
2022/04/18 01:57:12;;;;;;;3.90;3.70;;;9.70;32.20;;;;;;20565;6764;278088;-72
2022/04/18 01:59:48;;;;;;;3.50;3.30;;;10.00;31.10;;;;;;20732;6786;116905;-72
2022/04/18 02:02:23;;;;;;;3.57;3.37;;;9.70;31.90;;;;;;20808;6764;117163;-72
2022/04/18 02:05:00;;;;;;;3.70;3.50;;;9.40;32.40;;;;;;20790;6764;117289;-72
2022/04/18 02:07:35;;;;;;;3.80;3.53;;;9.10;32.70;;;;;;20755;6781;116919;-72
2022/04/18 02:10:11;;;;;;;3.45;3.25;;;9.10;33.60;;;;;;20556;6764;279926;-72
2022/04/18 02:12:46;;;;;;;3.50;3.30;;;9.10;33.80;;;;;;20769;6767;120580;-72
2022/04/18 02:15:22;;;;;;;3.80;3.43;;;9.10;33.50;;;;;;20802;6764;116861;-72
2022/04/18 02:17:58;;;;;;;3.50;3.30;;;9.00;33.70;;;;;;20749;6781;116913;-72
2022/04/18 02:20:33;;;;;;;4.10;3.80;;;8.80;33.60;;;;;;20454;6784;308501;-72
2022/04/18 02:23:09;;;;;;;4.00;3.70;;;9.00;33.70;;;;;;20732;6784;116911;-72
2022/04/18 02:25:44;;;;;;;4.07;3.83;;;9.10;33.50;;;;;;20530;6784;315843;-72
2022/04/18 02:28:20;;;;;;;3.93;3.53;;;9.30;33.60;;;;;;20789;6769;116787;-72
2022/04/18 02:30:56;;;;;;;3.40;3.20;;;9.20;33.30;;;;;;20463;6769;309088;-72
2022/04/18 02:33:31;;;;;;;4.00;3.80;;;9.40;33.80;;;;;;20579;6769;310084;-72
2022/04/18 02:36:07;;;;;;;3.40;3.20;;;9.60;32.90;;;;;;20786;6769;117405;-72
2022/04/18 02:38:42;;;;;;;3.87;3.67;;;9.50;32.70;;;;;;20571;6769;336243;-71
2022/04/18 02:41:19;;;;;;;3.80;3.50;;;9.70;33.30;;;;;;20424;6769;307842;-72
2022/04/18 02:43:54;;;;;;;4.00;3.70;;;9.70;32.50;;;;;;20570;6769;307982;-72
2022/04/18 02:46:30;;;;;;;4.03;3.80;;;9.90;32.40;;;;;;20569;6769;336641;-72
2022/04/18 02:49:05;;;;;;;5.03;4.73;;;10.00;31.30;;;;;;20785;6764;118005;-72
2022/04/18 02:51:41;;;;;;;5.35;4.90;;;9.70;32.50;;;;;;20369;6779;339503;-72
2022/04/18 02:54:17;;;;;;;6.27;5.87;;;9.70;33.30;;;;;;20793;6769;117146;-72
2022/04/18 02:56:52;;;;;;;4.62;4.32;;;9.50;33.30;;;;;;20523;6779;310889;-72
2022/04/18 02:59:28;;;;;;;3.83;3.53;;;9.50;33.50;;;;;;20705;6794;117347;-72
2022/04/18 03:02:03;;;;;;;3.37;3.17;;;9.30;33.30;;;;;;20531;6790;117375;-72
2022/04/18 03:04:39;;;;;;;3.72;3.53;;;9.10;33.70;;;;;;20526;6784;328290;-72
2022/04/18 03:07:14;;;;;;;3.83;3.60;;;9.20;34.00;;;;;;20770;6769;116776;-72
2022/04/18 03:09:50;;;;;;;3.73;3.53;;;9.00;33.70;;;;;;20552;6769;309636;-71
2022/04/18 03:12:26;;;;;;;4.10;3.90;;;9.10;33.90;;;;;;20543;6779;336111;-71
2022/04/18 03:15:01;;;;;;;3.70;3.50;;;9.40;33.50;;;;;;20743;6779;126300;-72
2022/04/18 03:17:37;;;;;;;4.93;4.53;;;9.20;33.40;;;;;;20738;6786;117380;-72
2022/04/18 03:20:12;;;;;;;4.00;3.70;;;8.80;33.70;;;;;;20704;6781;117675;-72
2022/04/18 03:22:48;;;;;;;4.03;3.73;;;8.50;34.10;;;;;;20561;6766;325636;-72
2022/04/18 03:25:23;;;;;;;4.30;4.00;;;8.60;34.70;;;;;;20540;6780;278585;-72
2022/04/18 03:27:59;;;;;;;4.10;3.80;;;9.00;34.80;;;;;;20562;6771;305023;-73
2022/04/18 03:30:36;;;;;;;3.87;3.60;;;9.30;34.90;;;;;;20672;6780;116910;-71
2022/04/18 03:33:11;;;;;;;3.97;3.60;;;9.10;34.80;;;;;;20776;6766;119587;-71
2022/04/18 03:41:38;;;;;;;3.90;3.60;;;9.20;35.60;;;;;;20433;6769;308492;-72
2022/04/18 03:44:14;;;;;;;3.70;3.50;;;9.60;33.80;;;;;;20563;6771;302666;-72
2022/04/18 03:46:50;;;;;;;3.87;3.57;;;9.60;33.70;;;;;;20726;6783;120836;-71
2022/04/18 03:49:25;;;;;;;3.53;3.33;;;9.40;34.60;;;;;;20831;6754;116969;-71
2022/04/18 03:52:01;;;;;;;3.60;3.40;;;8.90;34.10;;;;;;20350;6769;339176;-71
2022/04/18 03:54:39;;;;;;;3.55;3.35;;;8.90;34.20;;;;;;20515;6786;321043;-72
2022/04/18 03:57:12;;;;;;;3.77;3.57;;;9.20;34.90;;;;;;20575;6779;278214;-72
2022/04/18 03:59:47;;;;;;;3.77;3.57;;;9.40;35.40;;;;;;20481;6794;312780;-72
2022/04/18 04:02:26;;;;;;;4.03;3.73;;;9.50;35.20;;;;;;20833;6754;116892;-71
2022/04/18 04:04:59;;;;;;;4.83;4.07;;;9.20;35.00;;;;;;20717;6784;116923;-71
2022/04/18 04:07:34;;;;;;;4.60;4.20;;;8.80;35.50;;;;;;20524;6784;285758;-70
2022/04/18 04:10:10;;;;;;;4.13;3.73;;;8.80;36.60;;;;;;20523;6775;308316;-71
2022/04/18 04:12:45;;;;;;;4.22;3.95;;;9.00;36.90;;;;;;20553;6769;281846;-73
2022/04/18 04:15:24;;;;;;;4.05;3.85;;;9.10;36.10;;;;;;20577;6769;340477;-69
2022/04/18 04:17:56;;;;;;;4.23;3.83;;;9.20;36.00;;;;;;20731;6784;116945;-69
2022/04/18 04:20:33;;;;;;;4.00;3.70;;;8.80;35.90;;;;;;20472;6784;338771;-76
2022/04/18 04:23:09;;;;;;;3.50;3.33;;;8.70;37.00;;;;;;20773;6769;119869;-71
2022/04/18 04:25:44;;;;;;;3.80;3.60;;;8.50;36.90;;;;;;20511;6841;307344;-70
2022/04/18 04:28:20;;;;;;;4.00;3.80;;;8.50;37.10;;;;;;20785;6769;117517;-70
2022/04/18 04:30:55;;;;;;;4.27;3.97;;;8.30;37.20;;;;;;20596;6798;117806;-70
2022/04/18 04:33:32;;;;;;;3.83;3.63;;;8.10;38.80;;;;;;20512;6783;337098;-71
2022/04/18 04:36:07;;;;;;;3.60;3.40;;;8.10;38.20;;;;;;20736;6783;117458;-70
2022/04/18 04:38:43;;;;;;;4.27;4.00;;;8.00;37.90;;;;;;20690;6794;117557;-72
2022/04/18 04:41:18;;;;;;;4.17;3.97;;;7.80;38.10;;;;;;20588;6784;117569;-71
2022/04/18 04:43:54;;;;;;;3.90;3.70;;;7.50;38.10;;;;;;20783;6769;116836;-72
2022/04/18 04:46:30;;;;;;;4.47;4.20;;;7.40;38.40;;;;;;20520;6779;332400;-72
2022/04/18 04:49:07;;;;;;;3.77;3.57;;;7.60;38.90;;;;;;20730;6781;117225;-76
2022/04/18 04:51:42;;;;;;;3.90;3.70;;;7.60;38.30;;;;;;20366;6781;300393;-71
2022/04/18 04:54:18;;;;;;;4.10;3.80;;;7.80;38.70;;;;;;20581;6766;306420;-70
2022/04/18 04:56:53;;;;;;;4.27;3.97;;;8.20;38.00;;;;;;20828;6757;147618;-70
2022/04/18 04:59:29;;;;;;;4.40;4.10;;;8.10;37.70;;;;;;20583;6764;306105;-73
2022/04/18 05:02:05;;;;;;;3.83;3.63;;;8.20;37.80;;;;;;20572;6837;117581;-73
2022/04/18 05:04:40;;;;;;;4.00;3.70;;;8.10;37.70;;;;;;20793;6766;116902;-75
2022/04/18 05:07:16;;;;;;;3.70;3.40;;;7.90;37.90;;;;;;20731;6781;116800;-73
2022/04/18 05:09:51;;;;;;;4.17;3.87;;;7.70;38.20;;;;;;20742;6779;116937;-71
2022/04/18 05:12:28;;;;;;;4.03;3.83;;;7.50;38.30;;;;;;20727;6786;117321;-73
2022/04/18 05:15:03;;;;;;;3.93;3.73;;;7.40;38.60;;;;;;20724;6781;116914;-72
2022/04/18 05:17:39;;;;;;;4.00;3.70;;;7.40;38.60;;;;;;20799;6811;117714;-73
2022/04/18 05:20:16;;;;;;;4.13;3.90;;;7.40;38.60;;;;;;20697;6784;123406;-72
2022/04/18 05:22:52;;;;;;;3.70;3.50;;;7.30;38.70;;;;;;20667;6799;122813;-74
2022/04/18 05:25:33;;;;;;;4.47;4.18;;;7.30;38.70;;;;;;20524;6783;307145;-72
2022/04/18 05:28:03;;;;;;;4.33;4.03;;;7.70;38.90;;;;;;20711;6794;118612;-77
2022/04/18 05:30:39;;;;;;;4.43;4.12;;;7.90;38.40;;;;;;20496;6766;310288;-73
2022/04/18 05:33:14;;;;;;;4.20;3.90;;;8.20;38.10;;;;;;20738;6779;117002;-72
2022/04/18 05:35:51;;;;;;;4.50;4.20;;;8.50;37.80;;;;;;20628;6757;306300;-74
2022/04/18 05:38:26;;;;;;;4.87;4.57;;;8.40;37.70;;;;;;20580;6769;276902;-70
2022/04/18 05:41:02;;;;;;;4.60;4.30;;;8.80;37.10;;;;;;20412;6784;308152;-70
2022/04/18 05:43:38;;;;;;;4.83;4.53;;;9.20;36.50;;;;;;20751;6779;116947;-74
2022/04/18 05:46:14;;;;;;;4.80;4.20;;;8.70;36.60;;;;;;20801;6764;116922;-70
2022/04/18 05:48:49;;;;;;;4.65;4.35;;;8.70;36.60;;;;;;20564;6766;306352;-71
2022/04/18 05:51:25;;;;;;;5.17;4.87;;;8.80;35.90;;;;;;20678;6764;120246;-73
2022/04/18 05:54:03;;;;;;;4.12;3.83;;;8.90;37.90;;;;;;20573;6772;307022;-72
2022/04/18 05:56:37;;;;;;;4.43;4.12;;;8.90;37.90;;;;;;20528;6784;282323;-72
2022/04/18 05:59:12;;;;;;;6.70;6.30;;;9.20;38.30;;;;;;20778;6769;116782;-72
2022/04/18 06:01:48;;;;;;;4.20;3.90;;;9.10;37.90;;;;;;20391;6769;283437;-73
2022/04/18 06:04:24;;;;;;;3.60;3.40;;;9.20;39.00;;;;;;20567;6771;340799;-72
2022/04/18 06:07:00;;;;;;;3.43;3.23;;;9.50;39.30;;;;;;20724;6784;117626;-72
2022/04/18 06:09:36;;;;;;;3.72;3.47;;;9.30;38.90;;;;;;20503;6794;336835;-72
2022/04/18 06:12:12;;;;;;;3.60;3.40;;;9.40;39.70;;;;;;20586;6837;124694;-71
2022/04/18 06:14:47;;;;;;;3.45;3.33;;;9.30;39.40;;;;;;20624;6751;306582;-72
2022/04/18 06:17:23;;;;;;;3.40;3.10;;;9.30;40.30;;;;;;20767;6779;117325;-72
2022/04/18 06:19:58;;;;;;;3.97;3.70;;;9.20;39.80;;;;;;20490;6786;336888;-72
2022/04/18 06:22:34;;;;;;;3.85;3.60;;;9.30;40.30;;;;;;20521;6786;307090;-72
2022/04/18 06:25:09;;;;;;;4.57;4.07;;;9.60;40.00;;;;;;20726;6783;116953;-72
2022/04/18 06:27:45;;;;;;;3.37;3.17;;;9.50;39.60;;;;;;20758;6779;115908;-72
2022/04/18 06:30:21;;;;;;;3.77;3.50;;;9.20;39.90;;;;;;20744;6764;116873;-72
2022/04/18 06:32:56;;;;;;;4.03;3.77;;;9.20;40.60;;;;;;20777;6766;121217;-73
2022/04/18 06:35:32;;;;;;;3.62;3.42;;;9.30;40.60;;;;;;20526;6784;337536;-72
2022/04/18 06:38:07;;;;;;;3.80;3.60;;;9.80;39.50;;;;;;20561;6775;277540;-72
2022/04/18 06:40:43;;;;;;;4.10;3.90;;;10.40;37.50;;;;;;20710;6769;116864;-72
2022/04/18 06:43:18;;;;;;;3.83;3.53;;;10.60;37.00;;;;;;20721;6784;117289;-72
2022/04/18 06:45:54;;;;;;;3.83;3.55;;;10.60;36.90;;;;;;20565;6772;335690;-72
2022/04/18 06:48:30;;;;;;;3.70;3.50;;;10.90;36.50;;;;;;20730;6788;117383;-72
2022/04/18 06:51:05;;;;;;;4.03;3.73;;;11.00;36.10;;;;;;20422;6779;322966;-72
2022/04/18 06:53:41;;;;;;;3.60;3.40;;;11.30;36.00;;;;;;20805;6766;122203;-72
2022/04/18 06:59:12;;;;;;;3.93;3.70;;;11.80;35.60;;;;;;20784;6768;118734;-72
2022/04/18 07:01:47;;;;;;;4.40;4.00;;;11.90;35.40;;;;;;20581;6784;117500;-72
2022/04/18 07:04:23;;;;;;;4.77;4.47;;;11.90;35.40;;;;;;20577;6769;306498;-72
2022/04/18 07:06:59;;;;;;;4.07;3.87;;;12.30;33.50;;;;;;20556;6769;305314;-72
2022/04/18 07:09:34;;;;;;;3.80;3.60;;;12.80;33.70;;;;;;20793;6769;117426;-72
2022/04/18 07:12:10;;;;;;;3.75;3.55;;;13.40;32.90;;;;;;20404;6825;333840;-72
2022/04/18 07:14:46;;;;;;;3.97;3.40;;;13.40;32.90;;;;;;20782;6769;117587;-73
2022/04/18 07:17:21;;;;;;;4.10;3.80;;;13.60;33.30;;;;;;20791;6769;117239;-71
2022/04/18 07:19:57;;;;;;;3.42;3.22;;;13.50;33.20;;;;;;20544;6769;277540;-71
2022/04/18 07:22:33;;;;;;;3.60;3.30;;;14.50;31.00;;;;;;20541;6779;306688;-71
2022/04/18 07:25:09;;;;;;;3.40;3.20;;;14.40;30.90;;;;;;20581;6763;303956;-71
2022/04/18 07:27:45;;;;;;;4.03;3.73;;;15.00;29.30;;;;;;20799;6761;117180;-71
2022/04/18 07:30:20;;;;;;;4.18;3.97;;;15.10;29.40;;;;;;20511;6776;283343;-71
2022/04/18 07:32:56;;;;;;;3.73;3.53;;;15.20;28.40;;;;;;20528;6779;280774;-71
2022/04/18 07:35:32;;;;;;;3.70;3.50;;;15.60;27.80;;;;;;20757;6781;117202;-71
2022/04/18 07:41:04;;;;;;;4.23;3.83;;;15.80;27.10;;;;;;20691;6764;117441;-72
2022/04/18 07:43:39;;;;;;;4.10;3.80;;;15.90;26.30;;;;;;20546;6781;306869;-71
2022/04/18 07:46:17;;;;;;;3.90;3.70;;;15.90;26.30;;;;;;20792;6769;117290;-71
2022/04/18 07:48:55;;;;;;;3.30;3.13;;;15.90;27.10;;;;;;20790;6764;117075;-72
2022/04/18 07:51:38;;;;;;;3.83;3.63;;;15.90;27.70;;;;;;20507;6764;307338;-71
2022/04/18 07:54:17;;;;;;;4.30;4.00;;;16.10;27.90;;;;;;20489;6799;279526;-71
2022/04/18 07:56:50;;;;;;;4.03;3.73;;;16.50;26.90;;;;;;20526;6779;307095;-72
2022/04/18 07:59:27;;;;;;;4.00;3.70;;;16.90;26.30;;;;;;20573;6772;306858;-72
2022/04/18 08:02:08;;;;;;;3.80;3.60;;;17.20;26.20;;;;;;20633;6779;117439;-72
2022/04/18 08:04:39;;;;;;;3.73;3.50;;;17.10;26.80;;;;;;20740;6784;117604;-72
2022/04/18 08:07:13;;;;;;;3.93;3.63;;;16.90;27.40;;;;;;20770;6769;117151;-71
2022/04/18 08:09:50;;;;;;;3.80;3.60;;;17.10;27.30;;;;;;20518;6784;307703;-71
2022/04/18 08:12:25;;;;;;;3.97;3.67;;;17.10;27.30;;;;;;20766;6775;117186;-71
2022/04/18 08:15:02;;;;;;;4.07;3.87;;;17.20;27.30;;;;;;20559;6769;307145;-71
2022/04/18 08:17:38;;;;;;;3.93;3.67;;;17.60;25.80;;;;;;20525;6784;307225;-71
2022/04/18 08:20:14;;;;;;;4.28;3.92;;;17.60;26.00;;;;;;20534;6769;308072;-71
2022/04/18 08:22:50;;;;;;;3.67;3.47;;;18.00;25.60;;;;;;20558;6769;306715;-72
2022/04/18 08:25:26;;;;;;;4.07;3.87;;;18.00;25.60;;;;;;20579;6769;277154;-71
2022/04/18 08:28:01;;;;;;;4.40;4.13;;;18.30;25.20;;;;;;20580;6769;307050;-70
2022/04/18 08:30:37;;;;;;;3.70;3.50;;;18.50;25.10;;;;;;20725;6769;117477;-71
2022/04/18 08:33:12;;;;;;;4.17;3.73;;;18.30;25.60;;;;;;20772;6769;117121;-71
2022/04/18 08:35:48;;;;;;;3.73;3.43;;;18.10;26.00;;;;;;20742;6784;117072;-71
2022/04/18 08:38:27;;;;;;;4.25;3.95;;;18.20;26.80;;;;;;20575;6769;310783;-71
2022/04/18 08:41:07;;;;;;;4.35;4.05;;;18.20;26.30;;;;;;20446;6769;292576;-71
2022/04/18 08:43:42;;;;;;;5.50;4.60;;;18.90;26.30;;;;;;20624;6754;280677;-71
2022/04/18 08:46:18;;;;;;;4.50;4.30;;;18.90;26.30;;;;;;20837;6754;117060;-71
2022/04/18 08:54:50;;;;;;;4.97;4.67;;;18.60;25.60;;;;;;20776;6772;117143;-71
2022/04/18 08:57:20;;;;;;;3.80;3.60;;;18.60;25.30;;;;;;20610;6760;326795;-71
2022/04/18 08:59:56;;;;;;;8.60;8.00;;;18.80;25.00;;;;;;20547;6769;305593;-71
2022/04/18 09:02:31;;;;;;;5.53;5.17;;;19.00;24.90;;;;;;20786;6770;117597;-71
2022/04/18 09:05:11;;;;;;;5.03;4.60;;;18.80;24.90;;;;;;20775;6769;117070;-71
2022/04/18 09:07:59;;;;;;;7.80;7.20;;;18.60;25.20;;;;;;20769;6775;117952;-71
2022/04/18 09:10:35;;;;;;;14.73;13.37;;;18.60;25.40;;;;;;20487;6784;281626;-71
2022/04/18 09:13:11;;;;;;;4.27;4.07;;;18.60;25.40;;;;;;20803;6760;119686;-71
2022/04/18 09:15:46;;;;;;;5.13;4.77;;;18.60;25.20;;;;;;20788;6769;117051;-71
2022/04/18 09:18:22;;;;;;;4.47;4.17;;;18.50;25.20;;;;;;20821;6760;124001;-71
2022/04/18 09:20:59;;;;;;;6.70;6.18;;;18.30;25.30;;;;;;20454;6769;280163;-70
2022/04/18 09:23:34;;;;;;;3.93;3.73;;;18.50;24.70;;;;;;20582;6769;307144;-70
2022/04/18 09:26:10;;;;;;;4.03;3.72;;;18.80;24.50;;;;;;20582;6769;310578;-70
2022/04/18 09:28:45;;;;;;;4.03;3.73;;;19.10;25.10;;;;;;20797;6769;117093;-73
2022/04/18 09:31:23;;;;;;;4.20;3.90;;;19.10;25.10;;;;;;20433;6769;319389;-71
2022/04/18 09:33:58;;;;;;;4.27;3.80;;;19.50;25.50;;;;;;20607;6760;305643;-71
2022/04/18 09:36:33;;;;;;;4.10;3.80;;;19.50;24.80;;;;;;20575;6769;306557;-71
2022/04/18 09:39:08;;;;;;;4.00;3.60;;;19.70;24.20;;;;;;20454;6784;282098;-71
2022/04/18 09:41:45;;;;;;;4.07;3.80;;;19.90;24.70;;;;;;20380;6799;339326;-71
2022/04/18 09:44:27;;;;;;;3.90;3.60;;;20.10;23.60;;;;;;20755;6779;117237;-71
2022/04/18 09:47:03;;;;;;;3.60;3.30;;;19.90;23.80;;;;;;20736;6779;117549;-71
2022/04/18 09:49:39;;;;;;;3.73;3.37;;;19.60;24.10;;;;;;20788;6769;117951;-71
2022/04/18 09:52:18;;;;;;;3.40;3.20;;;19.50;24.10;;;;;;20799;6766;117071;-71
2022/04/18 09:54:53;;;;;;;4.10;3.80;;;19.40;24.30;;;;;;20790;6764;119526;-70
2022/04/18 09:57:29;;;;;;;3.50;3.30;;;19.30;24.70;;;;;;20525;6786;278613;-71
2022/04/18 10:00:05;;;;;;;3.50;3.30;;;19.40;23.90;;;;;;20784;6764;117077;-71
2022/04/18 10:02:40;;;;;;;3.60;3.40;;;19.60;24.40;;;;;;20595;6766;276924;-71
2022/04/18 10:05:16;;;;;;;3.43;3.20;;;19.80;24.10;;;;;;20834;6751;117527;-71
2022/04/18 10:07:51;;;;;;;3.00;2.80;;;19.90;24.20;;;;;;20756;6779;120777;-71
2022/04/18 10:10:27;;;;;;;3.60;3.40;;;19.80;24.10;;;;;;20740;6766;117100;-71
2022/04/18 10:13:03;;;;;;;3.60;3.40;;;19.70;24.20;;;;;;20529;6779;278400;-71
2022/04/18 10:15:39;;;;;;;3.07;2.93;;;19.90;24.00;;;;;;20640;6766;117063;-71
2022/04/18 10:18:14;;;;;;;3.53;3.22;;;20.00;24.30;;;;;;20634;6751;339526;-71
2022/04/18 10:20:59;;;;;;;3.07;2.87;;;20.10;23.40;;;;;;20603;6769;118080;-71
2022/04/18 10:23:48;;;;;;;3.47;3.17;;;20.20;23.40;;;;;;20722;6756;117158;-71
2022/04/18 10:26:34;;;;;;;3.23;3.03;;;19.70;23.90;;;;;;20827;6756;117519;-71
2022/04/18 10:29:10;;;;;;;3.60;3.40;;;19.90;23.10;;;;;;20547;6769;306893;-71
2022/04/18 10:31:46;;;;;;;3.50;3.20;;;19.90;23.00;;;;;;20583;6786;117669;-71
2022/04/18 10:34:22;;;;;;;3.00;2.90;;;19.90;23.40;;;;;;20815;6755;117005;-71
2022/04/18 10:36:57;;;;;;;3.43;3.23;;;19.90;23.80;;;;;;20552;6770;277209;-71
2022/04/18 10:39:33;;;;;;;3.03;2.83;;;20.00;22.40;;;;;;20798;6770;117471;-72
2022/04/18 10:42:19;;;;;;;3.55;3.17;;;20.20;22.80;;;;;;20351;6842;308059;-71
2022/04/18 10:45:01;;;;;;;3.13;2.93;;;20.10;22.70;;;;;;20714;6786;118117;-71
2022/04/18 10:48:00;;;;;;;3.30;3.10;;;20.20;22.80;;;;;;20525;6831;119069;-71
2022/04/18 10:50:41;;;;;;;3.20;2.90;;;20.00;22.80;;;;;;20666;6785;117646;-71
2022/04/18 10:53:18;;;;;;;3.70;3.50;;;19.80;23.00;;;;;;20579;6771;278169;-71
2022/04/18 10:55:53;;;;;;;3.27;3.07;;;19.90;22.90;;;;;;20764;6771;121219;-72
2022/04/18 10:58:35;;;;;;;3.00;2.80;;;20.00;23.10;;;;;;20781;6771;120989;-73
2022/04/18 11:01:11;;;;;;;3.43;3.20;;;19.90;23.40;;;;;;20660;6771;121106;-72
2022/04/18 11:03:49;;;;;;;3.63;3.43;;;19.90;23.70;;;;;;20783;6771;117452;-73
2022/04/18 11:06:38;;;;;;;3.63;3.43;;;19.80;23.70;;;;;;20604;6812;306299;-72
2022/04/18 11:09:14;;;;;;;3.70;3.40;;;20.00;22.90;;;;;;20767;6771;116695;-72
2022/04/18 11:12:01;;;;;;;3.30;3.10;;;20.00;23.50;;;;;;20625;6771;119639;-71
2022/04/18 11:14:38;;;;;;;3.20;3.10;;;20.00;23.50;;;;;;20509;6790;306951;-71
2022/04/18 11:17:27;;;;;;;3.50;3.30;;;20.20;23.20;;;;;;20804;6760;117939;-71
2022/04/18 11:20:32;;;;;;;3.63;3.43;;;20.20;23.10;;;;;;20543;6771;308637;-71
2022/04/18 11:23:26;;;;;;;7.82;7.32;;;20.30;22.90;;;;;;20581;6760;337159;-71
2022/04/18 11:26:00;;;;;;;3.60;3.30;;;20.50;23.30;;;;;;20822;6760;117602;-71
2022/04/18 11:28:35;;;;;;;5.17;4.87;;;20.50;23.30;;;;;;20559;6775;289538;-71
2022/04/18 11:31:17;;;;;;;8.83;8.30;;;20.60;22.40;;;;;;20638;6777;121899;-71
2022/04/18 11:33:53;;;;;;;4.27;3.97;;;20.50;22.50;;;;;;20720;6790;117322;-71
2022/04/18 11:36:28;;;;;;;4.03;3.80;;;20.20;22.90;;;;;;20513;6787;308177;-71
2022/04/18 11:39:07;;;;;;;3.70;3.50;;;20.20;23.00;;;;;;20706;6788;142769;-71
2022/04/18 11:41:43;;;;;;;6.70;6.30;;;20.20;23.10;;;;;;20316;6792;310394;-71
2022/04/18 11:44:19;;;;;;;4.20;3.90;;;20.40;22.70;;;;;;20517;6784;307314;-71
2022/04/18 11:46:55;;;;;;;4.37;4.18;;;20.80;23.30;;;;;;20560;6769;309241;-71
2022/04/18 11:49:31;;;;;;;4.40;4.20;;;20.80;23.30;;;;;;20839;6755;117628;-71
2022/04/18 11:52:06;;;;;;;4.50;4.10;;;20.80;23.20;;;;;;20632;6820;117392;-71
2022/04/18 11:55:13;;;;;;;4.83;4.53;;;20.60;23.30;;;;;;20851;6749;116853;-71
2022/04/18 11:57:47;;;;;;;8.63;8.07;;;20.40;23.30;;;;;;19505;7123;324478;-71
2022/04/18 12:09:13;;;;;;;10.13;9.27;;;20.40;22.60;;;;;;20782;6766;117092;-71
2022/04/18 12:11:48;;;;;;;5.57;5.28;;;20.00;22.80;;;;;;20482;6766;288196;-71
2022/04/18 12:14:31;;;;;;;7.07;6.57;;;20.00;22.20;;;;;;20590;6768;276895;-71
2022/04/18 12:17:06;;;;;;;7.20;6.80;;;20.20;22.60;;;;;;20549;6772;335752;-71
2022/04/18 12:19:42;;;;;;;6.43;5.93;;;20.50;23.20;;;;;;20543;6779;307654;-71
2022/04/18 12:22:22;;;;;;;9.10;8.60;;;20.70;22.30;;;;;;20631;6751;276768;-71
2022/04/18 12:24:56;;;;;;;7.87;7.30;;;20.80;22.60;;;;;;20689;6794;117666;-71
2022/04/18 12:27:41;;;;;;;108.50;73.00;;;20.70;22.80;;;;;;20753;6779;117776;-72
2022/04/18 12:30:15;;;;;;;8.60;7.80;;;20.40;22.80;;;;;;20714;6779;122973;-71
2022/04/18 12:32:53;;;;;;;4.30;4.00;;;20.10;22.90;;;;;;20520;6781;341650;-73
2022/04/18 12:35:36;;;;;;;5.50;5.20;;;20.20;22.90;;;;;;20519;6781;307606;-72
2022/04/18 12:38:11;;;;;;;7.23;6.60;;;20.40;23.00;;;;;;20754;6779;117465;-72
2022/04/18 12:40:53;;;;;;;17.83;16.07;;;20.30;23.00;;;;;;20658;6779;147811;-73
2022/04/18 12:43:32;;;;;;;9.63;8.80;;;20.00;22.90;;;;;;20766;6828;124090;-72
2022/04/18 12:46:09;;;;;;;15.13;13.60;;;19.70;23.00;;;;;;20832;6757;117015;-72
2022/04/18 12:48:47;;;;;;;7.80;7.00;;;19.50;23.20;;;;;;20765;6771;117357;-72
2022/04/18 12:51:33;;;;;;;26.10;23.42;;;19.40;23.40;;;;;;20372;6784;309296;-72
2022/04/18 12:54:19;;;;;;;20.17;18.43;;;20.00;22.90;;;;;;20591;6764;282426;-72
2022/04/18 12:56:55;;;;;;;36.30;28.90;;;19.90;22.80;;;;;;20795;6764;118162;-72
2022/04/18 12:59:31;;;;;;;7.50;6.90;;;19.90;22.90;;;;;;20547;6779;292821;-72
2022/04/18 13:02:07;;;;;;;57.67;36.53;;;20.00;22.70;;;;;;20629;6822;117556;-72
2022/04/18 13:04:43;;;;;;;12.40;11.20;;;19.70;22.90;;;;;;20833;6754;117478;-72
2022/04/18 13:07:20;;;;;;;8.60;7.77;;;19.70;22.90;;;;;;20772;6820;121275;-72
2022/04/18 13:10:03;;;;;;;16.27;12.57;;;19.50;22.90;;;;;;20825;6751;117871;-72
2022/04/18 13:12:39;;;;;;;18.57;15.47;;;19.30;22.80;;;;;;20850;6751;117883;-72
2022/04/18 13:15:15;;;;;;;19.53;17.57;;;19.20;22.90;;;;;;20569;6766;306657;-72
2022/04/18 13:17:59;;;;;;;31.70;20.07;;;19.30;22.80;;;;;;20806;6764;117517;-72
2022/04/18 13:20:34;;;;;;;16.13;10.77;;;19.40;22.90;;;;;;20767;6749;117481;-71
2022/04/18 13:23:09;;;;;;;15.83;13.03;;;19.20;23.20;;;;;;20786;6764;117704;-72
2022/04/18 13:25:46;;;;;;;4.47;4.17;;;19.10;23.70;;;;;;20808;6764;117486;-72
2022/04/18 13:28:22;;;;;;;4.80;4.50;;;19.00;23.70;;;;;;20754;6779;117229;-72
2022/04/18 13:30:57;;;;;;;7.93;7.23;;;19.00;23.60;;;;;;20617;6781;124060;-72
2022/04/18 13:33:32;;;;;;;4.70;4.30;;;19.00;23.40;;;;;;20799;6766;117492;-72
2022/04/18 13:39:07;;;;;;;4.87;4.37;;;18.90;23.40;;;;;;20691;6794;117329;-72
2022/04/18 13:41:42;;;;;;;3.83;3.60;;;18.80;23.30;;;;;;20440;6766;283619;-72
2022/04/18 13:44:18;;;;;;;7.03;6.53;;;19.10;22.60;;;;;;20795;6769;117674;-72
2022/04/18 13:46:54;;;;;;;3.50;3.30;;;19.40;23.30;;;;;;20582;6764;306827;-72
2022/04/18 13:49:30;;;;;;;3.30;3.10;;;19.30;23.20;;;;;;20751;6781;117917;-72
2022/04/18 13:52:09;;;;;;;3.47;3.20;;;19.30;23.00;;;;;;20620;6826;117454;-72
2022/04/18 13:54:46;;;;;;;24.80;22.30;;;19.10;22.90;;;;;;20784;6772;117776;-72
2022/04/18 13:57:21;;;;;;;3.30;3.10;;;19.00;23.00;;;;;;20745;6783;117390;-72
2022/04/18 13:59:57;;;;;;;3.20;3.00;;;18.90;23.00;;;;;;20688;6794;117193;-72